Oklahoma City, Oklahoma
Current Conditions -  °F | °C
As of 12:52 AM on Monday 22 Dec 2014 (Local Time) from KOKC Reporting Station
Overcast Overcast  
Wind Chill: 43°   Ceiling: 900
Heat Index: 48°   Visibility: 7mi
Dew Point: 45°   Wind: 13mph
Humidity: 89%   Direction: 160°SSE
Pressure: 29.6"   Gusts: NA
Location:  35.47°N, 97.52°W
Report Text: KOKC 220652Z 16011KT 7SM OVC009 09/07 A2960 RMK AO2 SLP022 T00890072 $
Loading
Personal Weather Stations






























Interactive Weather Map New forecast layout! Learn more

10-Day Weather Forecast

Advertisements
Track Severe Weather on mobile